sensor_id;sensor_type;location;lat;lon;timestamp;P1;durP1;ratioP1;P2;durP2;ratioP2
71610;SDS011;59459;51.172;6.682;2023-07-13T00:00:46;3.47;;;0.88;;
71610;SDS011;59459;51.172;6.682;2023-07-13T00:03:11;5.20;;;1.40;;
71610;SDS011;59459;51.172;6.682;2023-07-13T00:05:38;3.60;;;1.02;;
71610;SDS011;59459;51.172;6.682;2023-07-13T00:08:03;3.97;;;0.87;;
71610;SDS011;59459;51.172;6.682;2023-07-13T00:10:28;7.13;;;1.00;;
71610;SDS011;59459;51.172;6.682;2023-07-13T00:12:54;4.70;;;1.47;;
71610;SDS011;59459;51.172;6.682;2023-07-13T00:15:21;3.43;;;0.80;;
71610;SDS011;59459;51.172;6.682;2023-07-13T00:17:48;3.00;;;1.13;;
71610;SDS011;59459;51.172;6.682;2023-07-13T00:20:13;2.30;;;0.90;;
71610;SDS011;59459;51.172;6.682;2023-07-13T00:22:38;3.03;;;0.90;;
71610;SDS011;59459;51.172;6.682;2023-07-13T00:25:04;3.03;;;0.90;;
71610;SDS011;59459;51.172;6.682;2023-07-13T00:27:29;3.77;;;0.83;;
71610;SDS011;59459;51.172;6.682;2023-07-13T00:29:58;1.67;;;0.80;;
71610;SDS011;59459;51.172;6.682;2023-07-13T00:32:23;1.93;;;1.00;;
71610;SDS011;59459;51.172;6.682;2023-07-13T00:34:50;6.07;;;1.10;;
71610;SDS011;59459;51.172;6.682;2023-07-13T00:37:15;3.73;;;1.27;;
71610;SDS011;59459;51.172;6.682;2023-07-13T00:39:41;4.67;;;1.20;;
71610;SDS011;59459;51.172;6.682;2023-07-13T00:42:06;2.60;;;1.00;;
71610;SDS011;59459;51.172;6.682;2023-07-13T00:44:31;2.90;;;1.10;;
71610;SDS011;59459;51.172;6.682;2023-07-13T00:46:56;2.58;;;0.85;;
71610;SDS011;59459;51.172;6.682;2023-07-13T00:49:24;5.73;;;1.27;;
71610;SDS011;59459;51.172;6.682;2023-07-13T00:54:17;4.70;;;1.70;;
71610;SDS011;59459;51.172;6.682;2023-07-13T00:56:43;4.63;;;0.98;;
71610;SDS011;59459;51.172;6.682;2023-07-13T00:59:09;2.33;;;1.30;;
71610;SDS011;59459;51.172;6.682;2023-07-13T01:01:35;4.85;;;1.08;;
71610;SDS011;59459;51.172;6.682;2023-07-13T01:04:02;5.23;;;1.03;;
71610;SDS011;59459;51.172;6.682;2023-07-13T01:06:27;4.70;;;0.88;;
71610;SDS011;59459;51.172;6.682;2023-07-13T01:08:52;3.17;;;0.73;;
71610;SDS011;59459;51.172;6.682;2023-07-13T01:11:19;3.03;;;1.08;;
71610;SDS011;59459;51.172;6.682;2023-07-13T01:13:45;3.10;;;0.80;;
71610;SDS011;59459;51.172;6.682;2023-07-13T01:16:15;4.17;;;1.10;;
71610;SDS011;59459;51.172;6.682;2023-07-13T01:18:42;7.60;;;1.13;;
71610;SDS011;59459;51.172;6.682;2023-07-13T01:21:08;4.70;;;0.80;;
71610;SDS011;59459;51.172;6.682;2023-07-13T01:23:33;4.90;;;0.77;;
71610;SDS011;59459;51.172;6.682;2023-07-13T01:25:59;4.90;;;1.10;;
71610;SDS011;59459;51.172;6.682;2023-07-13T01:28:24;5.60;;;1.20;;
71610;SDS011;59459;51.172;6.682;2023-07-13T01:30:52;4.20;;;1.45;;
71610;SDS011;59459;51.172;6.682;2023-07-13T01:33:18;3.97;;;0.98;;
71610;SDS011;59459;51.172;6.682;2023-07-13T01:35:44;3.00;;;0.87;;
71610;SDS011;59459;51.172;6.682;2023-07-13T01:38:09;2.03;;;0.80;;
71610;SDS011;59459;51.172;6.682;2023-07-13T01:40:35;3.17;;;0.80;;
71610;SDS011;59459;51.172;6.682;2023-07-13T01:43:00;4.75;;;0.82;;
71610;SDS011;59459;51.172;6.682;2023-07-13T01:45:25;4.50;;;0.87;;
71610;SDS011;59459;51.172;6.682;2023-07-13T01:47:50;3.43;;;0.97;;
71610;SDS011;59459;51.172;6.682;2023-07-13T01:50:16;6.43;;;1.10;;
71610;SDS011;59459;51.172;6.682;2023-07-13T01:52:41;2.57;;;0.90;;
71610;SDS011;59459;51.172;6.682;2023-07-13T01:55:06;3.40;;;0.80;;
71610;SDS011;59459;51.172;6.682;2023-07-13T01:57:32;3.45;;;0.82;;
71610;SDS011;59459;51.172;6.682;2023-07-13T01:59:57;3.53;;;1.00;;
71610;SDS011;59459;51.172;6.682;2023-07-13T02:02:22;8.13;;;1.00;;
71610;SDS011;59459;51.172;6.682;2023-07-13T02:04:47;5.67;;;0.90;;
71610;SDS011;59459;51.172;6.682;2023-07-13T02:07:13;3.83;;;0.80;;
71610;SDS011;59459;51.172;6.682;2023-07-13T02:09:38;3.37;;;0.90;;
71610;SDS011;59459;51.172;6.682;2023-07-13T02:12:03;3.17;;;1.00;;
71610;SDS011;59459;51.172;6.682;2023-07-13T02:14:28;5.07;;;1.30;;
71610;SDS011;59459;51.172;6.682;2023-07-13T02:16:54;2.90;;;0.70;;
71610;SDS011;59459;51.172;6.682;2023-07-13T02:19:19;2.10;;;0.73;;
71610;SDS011;59459;51.172;6.682;2023-07-13T02:21:44;2.53;;;1.00;;
71610;SDS011;59459;51.172;6.682;2023-07-13T02:24:09;6.27;;;0.70;;
71610;SDS011;59459;51.172;6.682;2023-07-13T02:26:40;2.78;;;0.90;;
71610;SDS011;59459;51.172;6.682;2023-07-13T02:29:05;4.77;;;1.00;;
71610;SDS011;59459;51.172;6.682;2023-07-13T02:31:30;2.30;;;0.90;;
71610;SDS011;59459;51.172;6.682;2023-07-13T02:33:55;3.60;;;0.90;;
71610;SDS011;59459;51.172;6.682;2023-07-13T02:36:20;3.90;;;1.00;;
71610;SDS011;59459;51.172;6.682;2023-07-13T02:38:46;4.87;;;0.90;;
71610;SDS011;59459;51.172;6.682;2023-07-13T02:41:11;6.57;;;1.60;;
71610;SDS011;59459;51.172;6.682;2023-07-13T02:43:37;4.75;;;0.90;;
71610;SDS011;59459;51.172;6.682;2023-07-13T02:46:03;5.97;;;0.83;;
71610;SDS011;59459;51.172;6.682;2023-07-13T02:48:34;4.43;;;1.17;;
71610;SDS011;59459;51.172;6.682;2023-07-13T02:51:00;3.85;;;1.10;;
71610;SDS011;59459;51.172;6.682;2023-07-13T02:53:25;2.27;;;0.80;;
71610;SDS011;59459;51.172;6.682;2023-07-13T02:55:50;3.73;;;1.10;;
71610;SDS011;59459;51.172;6.682;2023-07-13T02:58:15;2.73;;;0.80;;
71610;SDS011;59459;51.172;6.682;2023-07-13T03:00:42;4.03;;;1.00;;
71610;SDS011;59459;51.172;6.682;2023-07-13T03:03:07;2.80;;;0.83;;
71610;SDS011;59459;51.172;6.682;2023-07-13T03:05:32;7.27;;;1.43;;
71610;SDS011;59459;51.172;6.682;2023-07-13T03:07:57;4.03;;;1.13;;
71610;SDS011;59459;51.172;6.682;2023-07-13T03:10:23;3.77;;;1.03;;
71610;SDS011;59459;51.172;6.682;2023-07-13T03:12:48;4.87;;;1.20;;
71610;SDS011;59459;51.172;6.682;2023-07-13T03:15:13;2.33;;;0.87;;
71610;SDS011;59459;51.172;6.682;2023-07-13T03:17:38;5.10;;;1.10;;
71610;SDS011;59459;51.172;6.682;2023-07-13T03:20:04;1.77;;;0.80;;
71610;SDS011;59459;51.172;6.682;2023-07-13T03:22:29;4.10;;;0.80;;
71610;SDS011;59459;51.172;6.682;2023-07-13T03:24:54;5.43;;;1.00;;
71610;SDS011;59459;51.172;6.682;2023-07-13T03:27:20;3.73;;;0.90;;
71610;SDS011;59459;51.172;6.682;2023-07-13T03:29:45;3.63;;;0.87;;
71610;SDS011;59459;51.172;6.682;2023-07-13T03:32:10;3.77;;;0.77;;
71610;SDS011;59459;51.172;6.682;2023-07-13T03:34:35;4.37;;;1.20;;
71610;SDS011;59459;51.172;6.682;2023-07-13T03:37:01;3.13;;;1.07;;
71610;SDS011;59459;51.172;6.682;2023-07-13T03:39:26;5.00;;;1.30;;
71610;SDS011;59459;51.172;6.682;2023-07-13T03:41:51;5.43;;;0.95;;
71610;SDS011;59459;51.172;6.682;2023-07-13T03:44:17;4.70;;;0.83;;
71610;SDS011;59459;51.172;6.682;2023-07-13T03:46:43;4.25;;;1.15;;
71610;SDS011;59459;51.172;6.682;2023-07-13T03:49:08;3.87;;;0.90;;
71610;SDS011;59459;51.172;6.682;2023-07-13T03:51:34;3.83;;;1.00;;
71610;SDS011;59459;51.172;6.682;2023-07-13T03:53:59;4.07;;;0.77;;
71610;SDS011;59459;51.172;6.682;2023-07-13T03:56:25;2.20;;;0.90;;
71610;SDS011;59459;51.172;6.682;2023-07-13T03:58:50;5.80;;;0.93;;
71610;SDS011;59459;51.172;6.682;2023-07-13T04:01:17;6.23;;;1.03;;
71610;SDS011;59459;51.172;6.682;2023-07-13T04:03:42;4.80;;;1.13;;
71610;SDS011;59459;51.172;6.682;2023-07-13T04:06:12;3.70;;;0.90;;
71610;SDS011;59459;51.172;6.682;2023-07-13T04:08:40;3.23;;;1.00;;
71610;SDS011;59459;51.172;6.682;2023-07-13T04:11:05;3.23;;;1.10;;
71610;SDS011;59459;51.172;6.682;2023-07-13T04:13:30;2.90;;;0.73;;
71610;SDS011;59459;51.172;6.682;2023-07-13T04:15:55;2.95;;;0.90;;
71610;SDS011;59459;51.172;6.682;2023-07-13T04:18:21;3.23;;;1.00;;
71610;SDS011;59459;51.172;6.682;2023-07-13T04:20:46;3.03;;;1.07;;
71610;SDS011;59459;51.172;6.682;2023-07-13T04:23:12;4.25;;;1.00;;
71610;SDS011;59459;51.172;6.682;2023-07-13T04:25:37;2.63;;;0.90;;
71610;SDS011;59459;51.172;6.682;2023-07-13T04:28:03;4.40;;;1.27;;
71610;SDS011;59459;51.172;6.682;2023-07-13T04:30:28;4.13;;;1.20;;
71610;SDS011;59459;51.172;6.682;2023-07-13T04:32:53;3.97;;;1.07;;
71610;SDS011;59459;51.172;6.682;2023-07-13T04:35:19;5.73;;;1.00;;
71610;SDS011;59459;51.172;6.682;2023-07-13T04:37:49;3.40;;;1.30;;
71610;SDS011;59459;51.172;6.682;2023-07-13T04:40:15;7.13;;;1.48;;
71610;SDS011;59459;51.172;6.682;2023-07-13T04:42:40;4.43;;;1.00;;
71610;SDS011;59459;51.172;6.682;2023-07-13T04:45:06;4.97;;;0.93;;
71610;SDS011;59459;51.172;6.682;2023-07-13T04:47:32;2.23;;;0.90;;
71610;SDS011;59459;51.172;6.682;2023-07-13T04:49:57;3.55;;;1.13;;
71610;SDS011;59459;51.172;6.682;2023-07-13T04:52:23;7.43;;;1.60;;
71610;SDS011;59459;51.172;6.682;2023-07-13T04:54:48;5.30;;;1.30;;
71610;SDS011;59459;51.172;6.682;2023-07-13T04:57:13;3.33;;;1.27;;
71610;SDS011;59459;51.172;6.682;2023-07-13T04:59:39;3.87;;;1.13;;
71610;SDS011;59459;51.172;6.682;2023-07-13T05:02:04;7.40;;;1.30;;
71610;SDS011;59459;51.172;6.682;2023-07-13T05:04:29;4.50;;;1.20;;
71610;SDS011;59459;51.172;6.682;2023-07-13T05:06:54;6.03;;;0.90;;
71610;SDS011;59459;51.172;6.682;2023-07-13T05:09:20;5.13;;;1.30;;
71610;SDS011;59459;51.172;6.682;2023-07-13T05:11:45;6.40;;;1.40;;
71610;SDS011;59459;51.172;6.682;2023-07-13T05:14:10;5.00;;;1.20;;
71610;SDS011;59459;51.172;6.682;2023-07-13T05:16:36;5.17;;;1.30;;
71610;SDS011;59459;51.172;6.682;2023-07-13T05:19:01;6.30;;;1.37;;
71610;SDS011;59459;51.172;6.682;2023-07-13T05:21:26;4.50;;;1.25;;
71610;SDS011;59459;51.172;6.682;2023-07-13T05:23:52;7.17;;;1.33;;
71610;SDS011;59459;51.172;6.682;2023-07-13T05:26:17;2.90;;;1.10;;
71610;SDS011;59459;51.172;6.682;2023-07-13T05:28:42;5.13;;;1.20;;
71610;SDS011;59459;51.172;6.682;2023-07-13T05:31:08;5.90;;;1.43;;
71610;SDS011;59459;51.172;6.682;2023-07-13T05:33:33;3.08;;;1.00;;
71610;SDS011;59459;51.172;6.682;2023-07-13T05:35:59;3.50;;;1.27;;
71610;SDS011;59459;51.172;6.682;2023-07-13T05:38:25;3.35;;;1.40;;
71610;SDS011;59459;51.172;6.682;2023-07-13T05:40:54;5.07;;;1.23;;
71610;SDS011;59459;51.172;6.682;2023-07-13T05:43:19;4.47;;;1.30;;
71610;SDS011;59459;51.172;6.682;2023-07-13T05:45:44;2.67;;;1.37;;
71610;SDS011;59459;51.172;6.682;2023-07-13T05:48:09;4.67;;;1.20;;
71610;SDS011;59459;51.172;6.682;2023-07-13T05:50:35;8.10;;;1.30;;
71610;SDS011;59459;51.172;6.682;2023-07-13T05:53:00;6.43;;;1.20;;
71610;SDS011;59459;51.172;6.682;2023-07-13T05:55:25;6.53;;;1.40;;
71610;SDS011;59459;51.172;6.682;2023-07-13T05:57:50;5.50;;;1.50;;
71610;SDS011;59459;51.172;6.682;2023-07-13T06:00:16;5.47;;;1.40;;
71610;SDS011;59459;51.172;6.682;2023-07-13T06:02:41;3.27;;;1.30;;
71610;SDS011;59459;51.172;6.682;2023-07-13T06:05:07;6.13;;;1.50;;
71610;SDS011;59459;51.172;6.682;2023-07-13T06:07:32;8.17;;;1.47;;
71610;SDS011;59459;51.172;6.682;2023-07-13T06:09:57;9.87;;;1.97;;
71610;SDS011;59459;51.172;6.682;2023-07-13T06:12:24;7.80;;;1.73;;
71610;SDS011;59459;51.172;6.682;2023-07-13T06:14:49;5.87;;;1.80;;
71610;SDS011;59459;51.172;6.682;2023-07-13T06:17:14;7.13;;;1.47;;
71610;SDS011;59459;51.172;6.682;2023-07-13T06:19:39;6.60;;;1.50;;
71610;SDS011;59459;51.172;6.682;2023-07-13T06:22:05;5.47;;;1.57;;
71610;SDS011;59459;51.172;6.682;2023-07-13T06:24:30;6.10;;;2.50;;
71610;SDS011;59459;51.172;6.682;2023-07-13T06:26:55;7.60;;;1.77;;
71610;SDS011;59459;51.172;6.682;2023-07-13T06:29:21;5.63;;;1.90;;
71610;SDS011;59459;51.172;6.682;2023-07-13T06:31:46;6.83;;;1.70;;
71610;SDS011;59459;51.172;6.682;2023-07-13T06:34:11;4.50;;;1.47;;
71610;SDS011;59459;51.172;6.682;2023-07-13T06:36:36;9.77;;;2.00;;
71610;SDS011;59459;51.172;6.682;2023-07-13T06:39:03;7.13;;;1.60;;
71610;SDS011;59459;51.172;6.682;2023-07-13T06:41:29;7.53;;;2.05;;
71610;SDS011;59459;51.172;6.682;2023-07-13T06:43:55;10.63;;;1.70;;
71610;SDS011;59459;51.172;6.682;2023-07-13T06:46:21;5.15;;;1.50;;
71610;SDS011;59459;51.172;6.682;2023-07-13T06:48:46;4.37;;;1.70;;
71610;SDS011;59459;51.172;6.682;2023-07-13T06:51:11;4.53;;;1.50;;
71610;SDS011;59459;51.172;6.682;2023-07-13T06:53:37;4.17;;;2.00;;
71610;SDS011;59459;51.172;6.682;2023-07-13T06:56:02;4.33;;;1.57;;
71610;SDS011;59459;51.172;6.682;2023-07-13T06:58:27;5.90;;;1.90;;
71610;SDS011;59459;51.172;6.682;2023-07-13T07:00:53;5.17;;;1.80;;
71610;SDS011;59459;51.172;6.682;2023-07-13T07:03:18;5.93;;;2.50;;
71610;SDS011;59459;51.172;6.682;2023-07-13T07:05:43;6.63;;;2.40;;
71610;SDS011;59459;51.172;6.682;2023-07-13T07:08:09;6.40;;;2.60;;
71610;SDS011;59459;51.172;6.682;2023-07-13T07:10:34;6.50;;;2.03;;
71610;SDS011;59459;51.172;6.682;2023-07-13T07:12:59;6.88;;;2.08;;
71610;SDS011;59459;51.172;6.682;2023-07-13T07:15:25;7.87;;;2.00;;
71610;SDS011;59459;51.172;6.682;2023-07-13T07:17:50;5.50;;;1.90;;
71610;SDS011;59459;51.172;6.682;2023-07-13T07:20:15;9.77;;;2.20;;
71610;SDS011;59459;51.172;6.682;2023-07-13T07:22:41;6.37;;;2.70;;
71610;SDS011;59459;51.172;6.682;2023-07-13T07:25:06;4.40;;;1.93;;
71610;SDS011;59459;51.172;6.682;2023-07-13T07:27:32;7.90;;;3.43;;
71610;SDS011;59459;51.172;6.682;2023-07-13T07:29:57;6.07;;;1.97;;
71610;SDS011;59459;51.172;6.682;2023-07-13T07:32:22;9.70;;;2.43;;
71610;SDS011;59459;51.172;6.682;2023-07-13T07:34:48;4.77;;;2.10;;
71610;SDS011;59459;51.172;6.682;2023-07-13T07:37:13;6.00;;;1.95;;
71610;SDS011;59459;51.172;6.682;2023-07-13T07:39:39;4.27;;;2.03;;
71610;SDS011;59459;51.172;6.682;2023-07-13T07:42:04;5.80;;;1.83;;
71610;SDS011;59459;51.172;6.682;2023-07-13T07:44:33;5.63;;;1.80;;
71610;SDS011;59459;51.172;6.682;2023-07-13T07:46:59;5.63;;;1.90;;
71610;SDS011;59459;51.172;6.682;2023-07-13T07:49:24;6.80;;;2.30;;
71610;SDS011;59459;51.172;6.682;2023-07-13T07:51:49;4.23;;;2.13;;
71610;SDS011;59459;51.172;6.682;2023-07-13T07:54:14;5.60;;;1.83;;
71610;SDS011;59459;51.172;6.682;2023-07-13T07:56:40;9.60;;;2.10;;
71610;SDS011;59459;51.172;6.682;2023-07-13T07:59:05;9.30;;;2.80;;
71610;SDS011;59459;51.172;6.682;2023-07-13T08:01:31;6.53;;;1.70;;
71610;SDS011;59459;51.172;6.682;2023-07-13T08:03:56;7.23;;;2.43;;
71610;SDS011;59459;51.172;6.682;2023-07-13T08:06:21;8.63;;;3.00;;
71610;SDS011;59459;51.172;6.682;2023-07-13T08:08:47;6.07;;;1.97;;
71610;SDS011;59459;51.172;6.682;2023-07-13T08:11:12;5.57;;;1.97;;
71610;SDS011;59459;51.172;6.682;2023-07-13T08:13:37;7.90;;;2.20;;
71610;SDS011;59459;51.172;6.682;2023-07-13T08:16:04;6.83;;;2.50;;
71610;SDS011;59459;51.172;6.682;2023-07-13T08:18:29;9.07;;;2.40;;
71610;SDS011;59459;51.172;6.682;2023-07-13T08:20:54;5.53;;;2.17;;
71610;SDS011;59459;51.172;6.682;2023-07-13T08:23:24;5.23;;;1.80;;
71610;SDS011;59459;51.172;6.682;2023-07-13T08:25:52;8.88;;;2.78;;
71610;SDS011;59459;51.172;6.682;2023-07-13T08:28:19;7.63;;;2.33;;
71610;SDS011;59459;51.172;6.682;2023-07-13T08:30:44;7.30;;;2.43;;
71610;SDS011;59459;51.172;6.682;2023-07-13T08:33:09;6.77;;;2.10;;
71610;SDS011;59459;51.172;6.682;2023-07-13T08:35:34;8.77;;;2.77;;
71610;SDS011;59459;51.172;6.682;2023-07-13T08:37:59;5.33;;;2.13;;
71610;SDS011;59459;51.172;6.682;2023-07-13T08:40:25;6.77;;;2.60;;
71610;SDS011;59459;51.172;6.682;2023-07-13T08:42:53;8.63;;;1.90;;
71610;SDS011;59459;51.172;6.682;2023-07-13T08:45:24;8.32;;;3.05;;
71610;SDS011;59459;51.172;6.682;2023-07-13T08:48:03;7.70;;;2.60;;
71610;SDS011;59459;51.172;6.682;2023-07-13T08:50:30;5.70;;;1.73;;
71610;SDS011;59459;51.172;6.682;2023-07-13T08:52:57;5.20;;;2.05;;
71610;SDS011;59459;51.172;6.682;2023-07-13T08:55:27;9.73;;;2.42;;
71610;SDS011;59459;51.172;6.682;2023-07-13T08:57:59;13.30;;;2.78;;
71610;SDS011;59459;51.172;6.682;2023-07-13T09:00:25;10.03;;;3.30;;
71610;SDS011;59459;51.172;6.682;2023-07-13T09:02:55;8.88;;;2.65;;
71610;SDS011;59459;51.172;6.682;2023-07-13T09:10:28;6.55;;;1.92;;
71610;SDS011;59459;51.172;6.682;2023-07-13T09:13:02;5.30;;;1.95;;
71610;SDS011;59459;51.172;6.682;2023-07-13T09:15:41;8.37;;;2.50;;
71610;SDS011;59459;51.172;6.682;2023-07-13T09:18:26;5.20;;;2.00;;
71610;SDS011;59459;51.172;6.682;2023-07-13T09:23:27;4.50;;;2.00;;
71610;SDS011;59459;51.172;6.682;2023-07-13T09:25:55;5.70;;;1.60;;
71610;SDS011;59459;51.172;6.682;2023-07-13T09:28:25;4.57;;;1.87;;
71610;SDS011;59459;51.172;6.682;2023-07-13T09:31:04;5.22;;;1.95;;
71610;SDS011;59459;51.172;6.682;2023-07-13T09:33:30;6.50;;;2.05;;
71610;SDS011;59459;51.172;6.682;2023-07-13T09:35:57;5.70;;;2.10;;
71610;SDS011;59459;51.172;6.682;2023-07-13T09:38:23;6.05;;;2.58;;
71610;SDS011;59459;51.172;6.682;2023-07-13T09:44:01;5.63;;;1.88;;
71610;SDS011;59459;51.172;6.682;2023-07-13T09:46:27;3.42;;;1.50;;
71610;SDS011;59459;51.172;6.682;2023-07-13T09:48:52;4.80;;;1.90;;
71610;SDS011;59459;51.172;6.682;2023-07-13T09:51:17;5.00;;;2.07;;
71610;SDS011;59459;51.172;6.682;2023-07-13T09:53:43;7.33;;;1.87;;
71610;SDS011;59459;51.172;6.682;2023-07-13T09:56:27;3.70;;;1.73;;
71610;SDS011;59459;51.172;6.682;2023-07-13T09:58:54;6.07;;;1.65;;
71610;SDS011;59459;51.172;6.682;2023-07-13T10:01:31;7.03;;;1.57;;
71610;SDS011;59459;51.172;6.682;2023-07-13T10:03:56;4.53;;;1.85;;
71610;SDS011;59459;51.172;6.682;2023-07-13T10:06:23;4.95;;;1.80;;
71610;SDS011;59459;51.172;6.682;2023-07-13T10:08:49;5.60;;;1.70;;
71610;SDS011;59459;51.172;6.682;2023-07-13T10:13:53;5.75;;;1.80;;
71610;SDS011;59459;51.172;6.682;2023-07-13T10:16:20;6.03;;;1.73;;
71610;SDS011;59459;51.172;6.682;2023-07-13T10:18:48;3.78;;;1.63;;
71610;SDS011;59459;51.172;6.682;2023-07-13T10:23:39;4.63;;;1.90;;
71610;SDS011;59459;51.172;6.682;2023-07-13T10:26:09;11.27;;;2.10;;
71610;SDS011;59459;51.172;6.682;2023-07-13T10:28:36;6.80;;;1.70;;
71610;SDS011;59459;51.172;6.682;2023-07-13T10:31:01;5.20;;;2.07;;
71610;SDS011;59459;51.172;6.682;2023-07-13T10:33:27;4.13;;;1.77;;
71610;SDS011;59459;51.172;6.682;2023-07-13T10:35:56;6.80;;;1.83;;
71610;SDS011;59459;51.172;6.682;2023-07-13T10:38:24;6.70;;;2.30;;
71610;SDS011;59459;51.172;6.682;2023-07-13T10:41:02;3.85;;;1.90;;
71610;SDS011;59459;51.172;6.682;2023-07-13T10:43:39;5.60;;;1.83;;
71610;SDS011;59459;51.172;6.682;2023-07-13T10:46:06;4.97;;;1.57;;
71610;SDS011;59459;51.172;6.682;2023-07-13T10:48:33;5.88;;;2.38;;
71610;SDS011;59459;51.172;6.682;2023-07-13T10:50:59;5.45;;;1.98;;
71610;SDS011;59459;51.172;6.682;2023-07-13T10:53:30;6.20;;;1.80;;
71610;SDS011;59459;51.172;6.682;2023-07-13T10:55:59;8.10;;;1.85;;
71610;SDS011;59459;51.172;6.682;2023-07-13T11:03:22;6.50;;;2.17;;
71610;SDS011;59459;51.172;6.682;2023-07-13T11:05:48;8.73;;;1.80;;
71610;SDS011;59459;51.172;6.682;2023-07-13T11:10:52;4.15;;;1.50;;
71610;SDS011;59459;51.172;6.682;2023-07-13T11:19:17;4.53;;;1.90;;
71610;SDS011;59459;51.172;6.682;2023-07-13T11:21:26;4.37;;;1.57;;
71610;SDS011;59459;51.172;6.682;2023-07-13T11:24:00;4.68;;;1.55;;
71610;SDS011;59459;51.172;6.682;2023-07-13T11:26:42;2.85;;;1.42;;
71610;SDS011;59459;51.172;6.682;2023-07-13T11:29:08;5.47;;;1.73;;
71610;SDS011;59459;51.172;6.682;2023-07-13T11:31:34;3.25;;;1.45;;
71610;SDS011;59459;51.172;6.682;2023-07-13T11:33:59;3.03;;;1.60;;
71610;SDS011;59459;51.172;6.682;2023-07-13T11:36:29;5.07;;;1.52;;
71610;SDS011;59459;51.172;6.682;2023-07-13T11:39:04;8.32;;;1.90;;
71610;SDS011;59459;51.172;6.682;2023-07-13T11:41:31;4.40;;;1.50;;
71610;SDS011;59459;51.172;6.682;2023-07-13T11:44:10;4.22;;;1.67;;
71610;SDS011;59459;51.172;6.682;2023-07-13T11:46:36;4.03;;;1.33;;
71610;SDS011;59459;51.172;6.682;2023-07-13T11:49:04;3.30;;;1.63;;
71610;SDS011;59459;51.172;6.682;2023-07-13T11:51:30;6.88;;;1.67;;
71610;SDS011;59459;51.172;6.682;2023-07-13T11:53:57;6.60;;;1.63;;
71610;SDS011;59459;51.172;6.682;2023-07-13T11:56:23;4.00;;;1.50;;
71610;SDS011;59459;51.172;6.682;2023-07-13T11:58:51;2.53;;;1.38;;
71610;SDS011;59459;51.172;6.682;2023-07-13T12:01:18;4.97;;;1.80;;
71610;SDS011;59459;51.172;6.682;2023-07-13T12:03:44;3.28;;;1.05;;
71610;SDS011;59459;51.172;6.682;2023-07-13T12:09:11;5.57;;;1.73;;
71610;SDS011;59459;51.172;6.682;2023-07-13T12:11:45;3.33;;;1.45;;
71610;SDS011;59459;51.172;6.682;2023-07-13T12:14:17;3.77;;;1.50;;
71610;SDS011;59459;51.172;6.682;2023-07-13T12:16:43;3.47;;;1.33;;
71610;SDS011;59459;51.172;6.682;2023-07-13T12:19:14;3.72;;;1.67;;
71610;SDS011;59459;51.172;6.682;2023-07-13T12:21:41;3.78;;;1.35;;
71610;SDS011;59459;51.172;6.682;2023-07-13T12:24:13;4.93;;;1.33;;
71610;SDS011;59459;51.172;6.682;2023-07-13T12:26:39;4.13;;;1.55;;
71610;SDS011;59459;51.172;6.682;2023-07-13T12:29:05;4.93;;;1.47;;
71610;SDS011;59459;51.172;6.682;2023-07-13T12:31:39;4.57;;;1.20;;
71610;SDS011;59459;51.172;6.682;2023-07-13T12:34:09;2.15;;;1.20;;
71610;SDS011;59459;51.172;6.682;2023-07-13T12:37:20;3.72;;;1.40;;
71610;SDS011;59459;51.172;6.682;2023-07-13T12:42:00;3.42;;;1.40;;
71610;SDS011;59459;51.172;6.682;2023-07-13T12:44:34;2.57;;;1.60;;
71610;SDS011;59459;51.172;6.682;2023-07-13T12:47:06;4.05;;;1.00;;
71610;SDS011;59459;51.172;6.682;2023-07-13T12:49:39;3.92;;;1.30;;
71610;SDS011;59459;51.172;6.682;2023-07-13T12:52:12;7.68;;;2.08;;
71610;SDS011;59459;51.172;6.682;2023-07-13T12:54:39;4.13;;;1.50;;
71610;SDS011;59459;51.172;6.682;2023-07-13T12:57:04;3.27;;;1.30;;
71610;SDS011;59459;51.172;6.682;2023-07-13T12:59:34;3.10;;;1.10;;
71610;SDS011;59459;51.172;6.682;2023-07-13T13:02:01;5.38;;;1.92;;
71610;SDS011;59459;51.172;6.682;2023-07-13T13:04:27;4.70;;;1.40;;
71610;SDS011;59459;51.172;6.682;2023-07-13T13:07:03;3.23;;;1.30;;
71610;SDS011;59459;51.172;6.682;2023-07-13T13:09:28;3.92;;;1.30;;
71610;SDS011;59459;51.172;6.682;2023-07-13T13:11:54;4.93;;;1.53;;
71610;SDS011;59459;51.172;6.682;2023-07-13T13:14:19;4.13;;;1.50;;
71610;SDS011;59459;51.172;6.682;2023-07-13T13:16:46;7.97;;;1.70;;
71610;SDS011;59459;51.172;6.682;2023-07-13T13:19:17;5.25;;;1.60;;
71610;SDS011;59459;51.172;6.682;2023-07-13T13:21:43;5.13;;;1.10;;
71610;SDS011;59459;51.172;6.682;2023-07-13T13:24:13;5.97;;;1.50;;
71610;SDS011;59459;51.172;6.682;2023-07-13T13:26:39;4.83;;;1.30;;
71610;SDS011;59459;51.172;6.682;2023-07-13T13:29:14;3.60;;;1.10;;
71610;SDS011;59459;51.172;6.682;2023-07-13T13:31:40;5.17;;;1.67;;
71610;SDS011;59459;51.172;6.682;2023-07-13T13:34:07;4.20;;;1.03;;
71610;SDS011;59459;51.172;6.682;2023-07-13T13:36:33;5.37;;;0.83;;
71610;SDS011;59459;51.172;6.682;2023-07-13T13:38:58;7.60;;;1.10;;
71610;SDS011;59459;51.172;6.682;2023-07-13T13:41:23;6.97;;;1.20;;
71610;SDS011;59459;51.172;6.682;2023-07-13T13:43:48;2.37;;;0.90;;
71610;SDS011;59459;51.172;6.682;2023-07-13T13:48:39;4.03;;;0.88;;
71610;SDS011;59459;51.172;6.682;2023-07-13T13:51:26;6.27;;;1.70;;
71610;SDS011;59459;51.172;6.682;2023-07-13T13:53:50;6.70;;;1.60;;
71610;SDS011;59459;51.172;6.682;2023-07-13T13:56:17;4.70;;;1.13;;
71610;SDS011;59459;51.172;6.682;2023-07-13T13:58:42;3.50;;;1.13;;
71610;SDS011;59459;51.172;6.682;2023-07-13T14:01:12;2.53;;;1.10;;
71610;SDS011;59459;51.172;6.682;2023-07-13T14:03:39;5.20;;;1.20;;
71610;SDS011;59459;51.172;6.682;2023-07-13T14:06:04;4.03;;;1.63;;
71610;SDS011;59459;51.172;6.682;2023-07-13T14:08:30;2.37;;;1.17;;
71610;SDS011;59459;51.172;6.682;2023-07-13T14:10:56;4.40;;;1.33;;
71610;SDS011;59459;51.172;6.682;2023-07-13T14:13:24;3.10;;;1.55;;
71610;SDS011;59459;51.172;6.682;2023-07-13T14:15:51;3.88;;;1.45;;
71610;SDS011;59459;51.172;6.682;2023-07-13T14:18:16;3.90;;;1.20;;
71610;SDS011;59459;51.172;6.682;2023-07-13T14:20:43;4.30;;;1.30;;
71610;SDS011;59459;51.172;6.682;2023-07-13T14:23:08;5.22;;;1.55;;
71610;SDS011;59459;51.172;6.682;2023-07-13T14:25:33;3.17;;;1.10;;
71610;SDS011;59459;51.172;6.682;2023-07-13T14:27:59;4.57;;;1.60;;
71610;SDS011;59459;51.172;6.682;2023-07-13T14:30:25;3.80;;;1.35;;
71610;SDS011;59459;51.172;6.682;2023-07-13T14:32:51;4.87;;;1.40;;
71610;SDS011;59459;51.172;6.682;2023-07-13T14:35:17;4.97;;;1.53;;
71610;SDS011;59459;51.172;6.682;2023-07-13T14:37:43;3.65;;;1.10;;
71610;SDS011;59459;51.172;6.682;2023-07-13T14:40:12;4.45;;;1.40;;
71610;SDS011;59459;51.172;6.682;2023-07-13T14:42:38;3.60;;;1.27;;
71610;SDS011;59459;51.172;6.682;2023-07-13T14:45:03;3.50;;;1.63;;
71610;SDS011;59459;51.172;6.682;2023-07-13T14:47:28;7.77;;;2.00;;
71610;SDS011;59459;51.172;6.682;2023-07-13T14:49:53;3.90;;;1.73;;
71610;SDS011;59459;51.172;6.682;2023-07-13T14:52:20;6.10;;;1.90;;
71610;SDS011;59459;51.172;6.682;2023-07-13T14:54:46;3.67;;;1.70;;
71610;SDS011;59459;51.172;6.682;2023-07-13T14:57:15;4.23;;;1.60;;
71610;SDS011;59459;51.172;6.682;2023-07-13T14:59:40;5.10;;;1.67;;
71610;SDS011;59459;51.172;6.682;2023-07-13T15:02:28;7.20;;;2.47;;
71610;SDS011;59459;51.172;6.682;2023-07-13T15:04:54;6.65;;;2.30;;
71610;SDS011;59459;51.172;6.682;2023-07-13T15:07:19;5.13;;;2.00;;
71610;SDS011;59459;51.172;6.682;2023-07-13T15:09:46;6.32;;;2.03;;
71610;SDS011;59459;51.172;6.682;2023-07-13T15:12:12;3.67;;;1.80;;
71610;SDS011;59459;51.172;6.682;2023-07-13T15:14:37;4.60;;;2.70;;
71610;SDS011;59459;51.172;6.682;2023-07-13T15:17:03;4.05;;;1.70;;
71610;SDS011;59459;51.172;6.682;2023-07-13T15:19:28;5.17;;;1.70;;
71610;SDS011;59459;51.172;6.682;2023-07-13T15:21:54;4.40;;;1.83;;
71610;SDS011;59459;51.172;6.682;2023-07-13T15:24:22;4.85;;;1.90;;